KRNC/RNC METAR and TAF weather

Enter ICAO airport designator
Station Type Date Time Source
KRNC METAR 2020/08/11 01:35 UTC NOAA

KRNC 110135Z AUTO 00000KT 10SM FEW045 23/21 A3002 RMK A01


Station Type Date Time Source
KRNC Decoded METAR 2020/08/11 01:35 UTC NOAA

Station name not available
Aug 10, 2020 - 09:35 PM EDT / 2020.08.11 0135 UTC
Wind: Calm:0
Visibility: 10 mile(s):0
Sky conditions: mostly clear
Temperature: 73 F (23 C)
Dew Point: 69 F (21 C)
Relative Humidity: 88%
Pressure (altimeter): 30.02 in. Hg (1016 hPa)
ob: KRNC 110135Z AUTO 00000KT 10SM FEW045 23/21 A3002 RMK A01
cycle: 1

Station Type Date Time Source
KRNC TAF 2009/08/31 19:45 UTC NOAA

METAR KRNC 311945Z AUTO 35008KT 10SM CLR 25/12 A3011
RMK AO1 T02500116 $

Example: see airport list